sensor_id;sensor_type;location;lat;lon;timestamp;P1;durP1;ratioP1;P2;durP2;ratioP2
24090;SDS011;12272;52.426;17.100;2023-06-05T00:00:45;2.85;;;2.35;;
24090;SDS011;12272;52.426;17.100;2023-06-05T00:05:48;9.85;;;4.15;;
24090;SDS011;12272;52.426;17.100;2023-06-05T00:10:50;6.93;;;3.33;;
24090;SDS011;12272;52.426;17.100;2023-06-05T00:15:53;8.45;;;3.13;;
24090;SDS011;12272;52.426;17.100;2023-06-05T00:20:55;8.05;;;4.00;;
24090;SDS011;12272;52.426;17.100;2023-06-05T00:25:58;4.47;;;3.17;;
24090;SDS011;12272;52.426;17.100;2023-06-05T00:31:01;3.30;;;2.00;;
24090;SDS011;12272;52.426;17.100;2023-06-05T00:36:04;2.70;;;1.50;;
24090;SDS011;12272;52.426;17.100;2023-06-05T00:41:07;3.90;;;2.53;;
24090;SDS011;12272;52.426;17.100;2023-06-05T00:46:10;4.50;;;2.83;;
24090;SDS011;12272;52.426;17.100;2023-06-05T00:51:14;4.50;;;2.20;;
24090;SDS011;12272;52.426;17.100;2023-06-05T00:56:19;3.55;;;2.42;;
24090;SDS011;12272;52.426;17.100;2023-06-05T01:01:23;4.70;;;2.78;;
24090;SDS011;12272;52.426;17.100;2023-06-05T01:06:27;2.92;;;1.90;;
24090;SDS011;12272;52.426;17.100;2023-06-05T01:11:43;4.57;;;2.60;;
24090;SDS011;12272;52.426;17.100;2023-06-05T01:16:49;4.60;;;2.67;;
24090;SDS011;12272;52.426;17.100;2023-06-05T01:21:57;5.05;;;3.28;;
24090;SDS011;12272;52.426;17.100;2023-06-05T01:27:07;5.20;;;3.38;;
24090;SDS011;12272;52.426;17.100;2023-06-05T01:32:25;7.60;;;3.15;;
24090;SDS011;12272;52.426;17.100;2023-06-05T01:37:40;5.05;;;3.45;;
24090;SDS011;12272;52.426;17.100;2023-06-05T01:42:48;5.63;;;4.05;;
24090;SDS011;12272;52.426;17.100;2023-06-05T01:47:52;6.78;;;3.63;;
24090;SDS011;12272;52.426;17.100;2023-06-05T01:52:56;4.93;;;3.47;;
24090;SDS011;12272;52.426;17.100;2023-06-05T01:58:03;5.80;;;3.53;;
24090;SDS011;12272;52.426;17.100;2023-06-05T02:03:06;6.40;;;3.05;;
24090;SDS011;12272;52.426;17.100;2023-06-05T02:08:10;7.50;;;2.45;;
24090;SDS011;12272;52.426;17.100;2023-06-05T02:13:12;4.63;;;2.90;;
24090;SDS011;12272;52.426;17.100;2023-06-05T02:18:17;8.57;;;3.22;;
24090;SDS011;12272;52.426;17.100;2023-06-05T02:23:20;4.53;;;2.78;;
24090;SDS011;12272;52.426;17.100;2023-06-05T02:28:23;2.85;;;2.25;;
24090;SDS011;12272;52.426;17.100;2023-06-05T02:33:26;5.93;;;3.20;;
24090;SDS011;12272;52.426;17.100;2023-06-05T02:38:29;3.75;;;3.38;;
24090;SDS011;12272;52.426;17.100;2023-06-05T02:43:32;3.22;;;2.03;;
24090;SDS011;12272;52.426;17.100;2023-06-05T02:48:35;4.15;;;3.13;;
24090;SDS011;12272;52.426;17.100;2023-06-05T02:53:38;3.17;;;2.88;;
24090;SDS011;12272;52.426;17.100;2023-06-05T02:58:43;6.00;;;3.03;;
24090;SDS011;12272;52.426;17.100;2023-06-05T03:03:48;3.63;;;3.00;;
24090;SDS011;12272;52.426;17.100;2023-06-05T03:08:52;3.22;;;2.92;;
24090;SDS011;12272;52.426;17.100;2023-06-05T03:13:58;7.05;;;2.42;;
24090;SDS011;12272;52.426;17.100;2023-06-05T03:19:03;6.75;;;2.95;;
24090;SDS011;12272;52.426;17.100;2023-06-05T03:24:06;3.80;;;3.08;;
24090;SDS011;12272;52.426;17.100;2023-06-05T03:29:13;8.27;;;3.97;;
24090;SDS011;12272;52.426;17.100;2023-06-05T03:34:16;3.33;;;1.50;;
24090;SDS011;12272;52.426;17.100;2023-06-05T03:39:19;4.47;;;3.55;;
24090;SDS011;12272;52.426;17.100;2023-06-05T03:44:23;8.38;;;3.30;;
24090;SDS011;12272;52.426;17.100;2023-06-05T03:49:28;5.93;;;3.25;;
24090;SDS011;12272;52.426;17.100;2023-06-05T03:54:34;14.82;;;4.55;;
24090;SDS011;12272;52.426;17.100;2023-06-05T03:59:37;17.15;;;4.50;;
24090;SDS011;12272;52.426;17.100;2023-06-05T04:04:40;10.70;;;3.28;;
24090;SDS011;12272;52.426;17.100;2023-06-05T04:09:42;4.82;;;3.03;;
24090;SDS011;12272;52.426;17.100;2023-06-05T04:14:45;10.00;;;4.00;;
24090;SDS011;12272;52.426;17.100;2023-06-05T04:19:48;12.25;;;3.92;;
24090;SDS011;12272;52.426;17.100;2023-06-05T04:24:51;11.77;;;5.20;;
24090;SDS011;12272;52.426;17.100;2023-06-05T04:29:56;14.02;;;4.55;;
24090;SDS011;12272;52.426;17.100;2023-06-05T04:34:59;18.35;;;3.97;;
24090;SDS011;12272;52.426;17.100;2023-06-05T04:40:02;8.02;;;3.67;;
24090;SDS011;12272;52.426;17.100;2023-06-05T04:45:11;8.93;;;3.50;;
24090;SDS011;12272;52.426;17.100;2023-06-05T04:50:22;12.55;;;4.55;;
24090;SDS011;12272;52.426;17.100;2023-06-05T04:55:28;9.93;;;3.35;;
24090;SDS011;12272;52.426;17.100;2023-06-05T05:00:31;3.72;;;2.72;;
24090;SDS011;12272;52.426;17.100;2023-06-05T05:05:36;3.92;;;2.60;;
24090;SDS011;12272;52.426;17.100;2023-06-05T05:10:40;7.45;;;4.15;;
24090;SDS011;12272;52.426;17.100;2023-06-05T05:15:43;3.53;;;2.60;;
24090;SDS011;12272;52.426;17.100;2023-06-05T05:20:46;4.93;;;2.40;;
24090;SDS011;12272;52.426;17.100;2023-06-05T05:25:48;11.27;;;3.95;;
24090;SDS011;12272;52.426;17.100;2023-06-05T05:30:54;16.67;;;5.00;;
24090;SDS011;12272;52.426;17.100;2023-06-05T05:36:00;3.80;;;1.77;;
24090;SDS011;12272;52.426;17.100;2023-06-05T05:41:03;4.55;;;2.35;;
24090;SDS011;12272;52.426;17.100;2023-06-05T05:46:05;4.78;;;2.65;;
24090;SDS011;12272;52.426;17.100;2023-06-05T05:51:08;7.32;;;3.60;;
24090;SDS011;12272;52.426;17.100;2023-06-05T05:56:11;3.78;;;3.05;;
24090;SDS011;12272;52.426;17.100;2023-06-05T06:17:10;5.90;;;1.67;;
24090;SDS011;12272;52.426;17.100;2023-06-05T06:22:14;2.47;;;1.38;;
24090;SDS011;12272;52.426;17.100;2023-06-05T06:27:17;18.52;;;3.75;;
24090;SDS011;12272;52.426;17.100;2023-06-05T06:32:35;1.85;;;1.40;;
24090;SDS011;12272;52.426;17.100;2023-06-05T06:37:38;3.97;;;2.45;;
24090;SDS011;12272;52.426;17.100;2023-06-05T06:42:43;3.13;;;1.75;;
24090;SDS011;12272;52.426;17.100;2023-06-05T06:47:55;2.42;;;1.70;;
24090;SDS011;12272;52.426;17.100;2023-06-05T06:53:09;4.97;;;2.08;;
24090;SDS011;12272;52.426;17.100;2023-06-05T06:58:12;4.25;;;1.27;;
24090;SDS011;12272;52.426;17.100;2023-06-05T07:03:14;4.97;;;1.27;;
24090;SDS011;12272;52.426;17.100;2023-06-05T07:08:18;4.32;;;1.45;;
24090;SDS011;12272;52.426;17.100;2023-06-05T07:13:23;9.15;;;2.95;;
24090;SDS011;12272;52.426;17.100;2023-06-05T07:18:30;4.60;;;1.25;;
24090;SDS011;12272;52.426;17.100;2023-06-05T07:23:33;2.40;;;1.40;;
24090;SDS011;12272;52.426;17.100;2023-06-05T07:28:41;4.05;;;1.63;;
24090;SDS011;12272;52.426;17.100;2023-06-05T07:33:43;5.90;;;1.95;;
24090;SDS011;12272;52.426;17.100;2023-06-05T07:38:46;1.65;;;1.30;;
24090;SDS011;12272;52.426;17.100;2023-06-05T07:43:49;2.75;;;1.63;;
24090;SDS011;12272;52.426;17.100;2023-06-05T07:48:51;1.67;;;1.15;;
24090;SDS011;12272;52.426;17.100;2023-06-05T07:53:54;4.13;;;0.82;;
24090;SDS011;12272;52.426;17.100;2023-06-05T07:58:57;2.28;;;1.42;;
24090;SDS011;12272;52.426;17.100;2023-06-05T08:03:59;2.67;;;1.23;;
24090;SDS011;12272;52.426;17.100;2023-06-05T08:09:02;3.95;;;1.60;;
24090;SDS011;12272;52.426;17.100;2023-06-05T08:14:11;2.67;;;1.35;;
24090;SDS011;12272;52.426;17.100;2023-06-05T08:19:14;2.08;;;1.15;;
24090;SDS011;12272;52.426;17.100;2023-06-05T08:24:16;2.15;;;1.10;;
24090;SDS011;12272;52.426;17.100;2023-06-05T08:29:19;7.00;;;1.85;;
24090;SDS011;12272;52.426;17.100;2023-06-05T08:34:25;1.98;;;1.10;;
24090;SDS011;12272;52.426;17.100;2023-06-05T08:39:28;1.63;;;1.20;;
24090;SDS011;12272;52.426;17.100;2023-06-05T08:44:35;2.47;;;1.20;;
24090;SDS011;12272;52.426;17.100;2023-06-05T08:49:47;3.25;;;1.48;;
24090;SDS011;12272;52.426;17.100;2023-06-05T08:54:56;2.33;;;1.65;;
24090;SDS011;12272;52.426;17.100;2023-06-05T09:00:06;2.70;;;1.30;;
24090;SDS011;12272;52.426;17.100;2023-06-05T09:05:16;2.85;;;1.60;;
24090;SDS011;12272;52.426;17.100;2023-06-05T09:10:28;2.42;;;1.58;;
24090;SDS011;12272;52.426;17.100;2023-06-05T09:15:32;2.25;;;1.48;;
24090;SDS011;12272;52.426;17.100;2023-06-05T09:20:40;1.63;;;1.20;;
24090;SDS011;12272;52.426;17.100;2023-06-05T09:25:45;1.77;;;1.35;;
24090;SDS011;12272;52.426;17.100;2023-06-05T09:31:02;1.75;;;1.42;;
24090;SDS011;12272;52.426;17.100;2023-06-05T09:36:07;2.83;;;1.10;;
24090;SDS011;12272;52.426;17.100;2023-06-05T09:41:12;2.22;;;1.15;;
24090;SDS011;12272;52.426;17.100;2023-06-05T09:46:22;2.33;;;1.27;;
24090;SDS011;12272;52.426;17.100;2023-06-05T09:51:25;1.95;;;1.35;;
24090;SDS011;12272;52.426;17.100;2023-06-05T09:56:27;3.65;;;1.38;;
24090;SDS011;12272;52.426;17.100;2023-06-05T10:01:30;8.73;;;2.20;;
24090;SDS011;12272;52.426;17.100;2023-06-05T10:06:38;3.58;;;1.13;;
24090;SDS011;12272;52.426;17.100;2023-06-05T10:11:42;1.40;;;1.00;;
24090;SDS011;12272;52.426;17.100;2023-06-05T10:16:48;7.93;;;2.50;;
24090;SDS011;12272;52.426;17.100;2023-06-05T10:21:58;1.85;;;1.30;;
24090;SDS011;12272;52.426;17.100;2023-06-05T10:43:27;5.22;;;1.77;;
24090;SDS011;12272;52.426;17.100;2023-06-05T10:54:10;4.28;;;1.40;;
24090;SDS011;12272;52.426;17.100;2023-06-05T10:59:29;6.47;;;1.77;;
24090;SDS011;12272;52.426;17.100;2023-06-05T11:25:29;1.52;;;1.42;;
24090;SDS011;12272;52.426;17.100;2023-06-05T11:30:39;1.75;;;1.35;;
24090;SDS011;12272;52.426;17.100;2023-06-05T11:35:50;4.43;;;1.52;;
24090;SDS011;12272;52.426;17.100;2023-06-05T11:40:54;1.98;;;1.60;;
24090;SDS011;12272;52.426;17.100;2023-06-05T11:45:58;3.22;;;1.20;;
24090;SDS011;12272;52.426;17.100;2023-06-05T11:51:01;1.10;;;0.80;;
24090;SDS011;12272;52.426;17.100;2023-06-05T11:56:11;2.05;;;1.55;;
24090;SDS011;12272;52.426;17.100;2023-06-05T12:01:17;2.33;;;1.45;;
24090;SDS011;12272;52.426;17.100;2023-06-05T12:06:24;2.13;;;1.35;;
24090;SDS011;12272;52.426;17.100;2023-06-05T12:11:27;1.95;;;1.40;;
24090;SDS011;12272;52.426;17.100;2023-06-05T12:16:33;7.60;;;1.40;;
24090;SDS011;12272;52.426;17.100;2023-06-05T12:21:37;3.22;;;1.10;;
24090;SDS011;12272;52.426;17.100;2023-06-05T12:26:58;2.22;;;1.50;;
24090;SDS011;12272;52.426;17.100;2023-06-05T12:32:02;2.40;;;1.45;;
24090;SDS011;12272;52.426;17.100;2023-06-05T12:37:05;1.40;;;1.13;;
24090;SDS011;12272;52.426;17.100;2023-06-05T12:42:13;1.60;;;1.48;;
24090;SDS011;12272;52.426;17.100;2023-06-05T12:47:15;7.20;;;1.92;;
24090;SDS011;12272;52.426;17.100;2023-06-05T12:52:18;2.13;;;1.42;;
24090;SDS011;12272;52.426;17.100;2023-06-05T12:57:27;1.92;;;1.65;;
24090;SDS011;12272;52.426;17.100;2023-06-05T13:02:30;9.90;;;1.38;;
24090;SDS011;12272;52.426;17.100;2023-06-05T13:07:35;1.98;;;1.50;;
24090;SDS011;12272;52.426;17.100;2023-06-05T13:12:39;3.33;;;0.60;;
24090;SDS011;12272;52.426;17.100;2023-06-05T13:17:42;1.85;;;1.25;;
24090;SDS011;12272;52.426;17.100;2023-06-05T13:22:46;4.30;;;1.20;;
24090;SDS011;12272;52.426;17.100;2023-06-05T13:27:48;5.55;;;1.25;;
24090;SDS011;12272;52.426;17.100;2023-06-05T13:32:52;1.27;;;1.17;;
24090;SDS011;12272;52.426;17.100;2023-06-05T13:37:56;3.50;;;1.33;;
24090;SDS011;12272;52.426;17.100;2023-06-05T13:43:00;1.58;;;1.02;;
24090;SDS011;12272;52.426;17.100;2023-06-05T13:48:02;4.13;;;1.55;;
24090;SDS011;12272;52.426;17.100;2023-06-05T13:53:05;2.72;;;1.50;;
24090;SDS011;12272;52.426;17.100;2023-06-05T13:58:10;7.63;;;1.90;;
24090;SDS011;12272;52.426;17.100;2023-06-05T14:03:17;4.18;;;1.50;;
24090;SDS011;12272;52.426;17.100;2023-06-05T14:08:21;2.22;;;1.33;;
24090;SDS011;12272;52.426;17.100;2023-06-05T14:13:25;2.85;;;1.40;;
24090;SDS011;12272;52.426;17.100;2023-06-05T14:18:30;5.22;;;1.95;;
24090;SDS011;12272;52.426;17.100;2023-06-05T14:23:35;8.52;;;2.15;;
24090;SDS011;12272;52.426;17.100;2023-06-05T14:28:42;3.88;;;1.90;;
24090;SDS011;12272;52.426;17.100;2023-06-05T14:33:50;3.65;;;1.80;;
24090;SDS011;12272;52.426;17.100;2023-06-05T14:38:58;2.65;;;1.50;;
24090;SDS011;12272;52.426;17.100;2023-06-05T14:44:01;2.05;;;1.25;;
24090;SDS011;12272;52.426;17.100;2023-06-05T14:49:15;6.75;;;2.05;;
24090;SDS011;12272;52.426;17.100;2023-06-05T14:54:17;17.15;;;3.00;;
24090;SDS011;12272;52.426;17.100;2023-06-05T14:59:22;2.75;;;1.85;;
24090;SDS011;12272;52.426;17.100;2023-06-05T15:04:28;4.35;;;1.50;;
24090;SDS011;12272;52.426;17.100;2023-06-05T15:09:33;5.95;;;1.95;;
24090;SDS011;12272;52.426;17.100;2023-06-05T15:14:36;3.28;;;1.60;;
24090;SDS011;12272;52.426;17.100;2023-06-05T15:19:39;4.57;;;1.63;;
24090;SDS011;12272;52.426;17.100;2023-06-05T15:24:41;2.05;;;1.33;;
24090;SDS011;12272;52.426;17.100;2023-06-05T15:29:48;6.13;;;1.70;;
24090;SDS011;12272;52.426;17.100;2023-06-05T15:34:51;2.15;;;1.55;;
24090;SDS011;12272;52.426;17.100;2023-06-05T15:39:54;7.57;;;2.03;;
24090;SDS011;12272;52.426;17.100;2023-06-05T15:50:10;3.17;;;1.40;;
24090;SDS011;12272;52.426;17.100;2023-06-05T15:55:13;2.55;;;0.90;;
24090;SDS011;12272;52.426;17.100;2023-06-05T16:00:18;1.95;;;1.48;;
24090;SDS011;12272;52.426;17.100;2023-06-05T16:05:22;1.20;;;0.95;;
24090;SDS011;12272;52.426;17.100;2023-06-05T16:10:25;2.08;;;1.58;;
24090;SDS011;12272;52.426;17.100;2023-06-05T16:15:31;1.58;;;1.38;;
24090;SDS011;12272;52.426;17.100;2023-06-05T16:20:33;2.72;;;1.40;;
24090;SDS011;12272;52.426;17.100;2023-06-05T16:25:38;1.50;;;1.20;;
24090;SDS011;12272;52.426;17.100;2023-06-05T16:30:40;2.53;;;1.30;;
24090;SDS011;12272;52.426;17.100;2023-06-05T16:35:43;2.83;;;1.70;;
24090;SDS011;12272;52.426;17.100;2023-06-05T16:40:45;6.10;;;1.67;;
24090;SDS011;12272;52.426;17.100;2023-06-05T16:45:48;2.35;;;1.30;;
24090;SDS011;12272;52.426;17.100;2023-06-05T16:50:52;13.02;;;2.00;;
24090;SDS011;12272;52.426;17.100;2023-06-05T16:55:56;6.45;;;1.88;;
24090;SDS011;12272;52.426;17.100;2023-06-05T17:00:59;3.22;;;1.25;;
24090;SDS011;12272;52.426;17.100;2023-06-05T17:06:02;2.00;;;1.10;;
24090;SDS011;12272;52.426;17.100;2023-06-05T17:11:11;8.93;;;1.70;;
24090;SDS011;12272;52.426;17.100;2023-06-05T17:16:13;1.88;;;1.10;;
24090;SDS011;12272;52.426;17.100;2023-06-05T17:21:16;4.70;;;1.23;;
24090;SDS011;12272;52.426;17.100;2023-06-05T17:26:20;1.50;;;1.08;;
24090;SDS011;12272;52.426;17.100;2023-06-05T17:31:24;7.65;;;1.67;;
24090;SDS011;12272;52.426;17.100;2023-06-05T17:36:31;2.35;;;1.25;;
24090;SDS011;12272;52.426;17.100;2023-06-05T17:41:34;8.60;;;1.75;;
24090;SDS011;12272;52.426;17.100;2023-06-05T17:46:37;10.25;;;1.85;;
24090;SDS011;12272;52.426;17.100;2023-06-05T17:51:40;8.50;;;1.70;;
24090;SDS011;12272;52.426;17.100;2023-06-05T17:56:46;4.45;;;2.40;;
24090;SDS011;12272;52.426;17.100;2023-06-05T18:01:52;4.82;;;1.63;;
24090;SDS011;12272;52.426;17.100;2023-06-05T18:06:56;16.65;;;2.45;;
24090;SDS011;12272;52.426;17.100;2023-06-05T18:11:59;8.27;;;2.20;;
24090;SDS011;12272;52.426;17.100;2023-06-05T18:17:02;6.28;;;1.45;;
24090;SDS011;12272;52.426;17.100;2023-06-05T18:22:06;6.93;;;1.85;;
24090;SDS011;12272;52.426;17.100;2023-06-05T18:27:09;5.30;;;2.03;;
24090;SDS011;12272;52.426;17.100;2023-06-05T18:32:12;7.55;;;1.60;;
24090;SDS011;12272;52.426;17.100;2023-06-05T18:37:18;6.13;;;2.05;;
24090;SDS011;12272;52.426;17.100;2023-06-05T18:42:20;3.00;;;1.52;;
24090;SDS011;12272;52.426;17.100;2023-06-05T18:47:23;3.08;;;1.15;;
24090;SDS011;12272;52.426;17.100;2023-06-05T18:52:26;8.68;;;1.48;;
24090;SDS011;12272;52.426;17.100;2023-06-05T18:57:30;3.53;;;1.48;;
24090;SDS011;12272;52.426;17.100;2023-06-05T19:02:38;4.55;;;1.58;;
24090;SDS011;12272;52.426;17.100;2023-06-05T19:07:41;6.50;;;1.83;;
24090;SDS011;12272;52.426;17.100;2023-06-05T19:12:44;13.25;;;2.53;;
24090;SDS011;12272;52.426;17.100;2023-06-05T19:17:46;14.05;;;3.38;;
24090;SDS011;12272;52.426;17.100;2023-06-05T19:22:49;10.48;;;2.20;;
24090;SDS011;12272;52.426;17.100;2023-06-05T19:27:52;8.65;;;2.47;;
24090;SDS011;12272;52.426;17.100;2023-06-05T19:32:55;14.02;;;3.10;;
24090;SDS011;12272;52.426;17.100;2023-06-05T19:37:58;18.50;;;3.03;;
24090;SDS011;12272;52.426;17.100;2023-06-05T19:43:01;10.73;;;3.35;;
24090;SDS011;12272;52.426;17.100;2023-06-05T19:48:04;16.85;;;2.42;;
24090;SDS011;12272;52.426;17.100;2023-06-05T19:53:07;10.27;;;2.63;;
24090;SDS011;12272;52.426;17.100;2023-06-05T19:58:14;13.85;;;3.72;;
24090;SDS011;12272;52.426;17.100;2023-06-05T20:03:19;13.35;;;2.78;;
24090;SDS011;12272;52.426;17.100;2023-06-05T20:08:23;11.82;;;3.75;;
24090;SDS011;12272;52.426;17.100;2023-06-05T20:13:26;9.38;;;2.95;;
24090;SDS011;12272;52.426;17.100;2023-06-05T20:18:28;5.95;;;2.25;;
24090;SDS011;12272;52.426;17.100;2023-06-05T20:23:36;11.40;;;3.33;;
24090;SDS011;12272;52.426;17.100;2023-06-05T20:28:39;13.15;;;4.97;;
24090;SDS011;12272;52.426;17.100;2023-06-05T20:33:42;20.30;;;4.95;;
24090;SDS011;12272;52.426;17.100;2023-06-05T20:38:45;20.23;;;4.10;;
24090;SDS011;12272;52.426;17.100;2023-06-05T20:43:47;23.45;;;5.28;;
24090;SDS011;12272;52.426;17.100;2023-06-05T20:48:51;23.45;;;4.32;;
24090;SDS011;12272;52.426;17.100;2023-06-05T20:53:54;20.48;;;4.00;;
24090;SDS011;12272;52.426;17.100;2023-06-05T20:58:57;22.50;;;5.40;;
24090;SDS011;12272;52.426;17.100;2023-06-05T21:03:59;14.88;;;2.78;;
24090;SDS011;12272;52.426;17.100;2023-06-05T21:09:02;11.27;;;4.13;;
24090;SDS011;12272;52.426;17.100;2023-06-05T21:14:05;8.05;;;2.70;;
24090;SDS011;12272;52.426;17.100;2023-06-05T21:19:07;18.60;;;3.55;;
24090;SDS011;12272;52.426;17.100;2023-06-05T21:24:10;21.30;;;4.13;;
24090;SDS011;12272;52.426;17.100;2023-06-05T21:29:12;17.73;;;3.72;;
24090;SDS011;12272;52.426;17.100;2023-06-05T21:34:15;14.05;;;3.95;;
24090;SDS011;12272;52.426;17.100;2023-06-05T21:39:18;18.15;;;3.67;;
24090;SDS011;12272;52.426;17.100;2023-06-05T21:44:21;13.35;;;4.25;;
24090;SDS011;12272;52.426;17.100;2023-06-05T21:49:24;12.07;;;4.30;;
24090;SDS011;12272;52.426;17.100;2023-06-05T21:54:26;6.55;;;3.03;;
24090;SDS011;12272;52.426;17.100;2023-06-05T21:59:29;5.30;;;2.13;;
24090;SDS011;12272;52.426;17.100;2023-06-05T22:04:32;14.48;;;3.65;;
24090;SDS011;12272;52.426;17.100;2023-06-05T22:09:35;7.70;;;3.53;;
24090;SDS011;12272;52.426;17.100;2023-06-05T22:14:41;9.05;;;3.10;;
24090;SDS011;12272;52.426;17.100;2023-06-05T22:19:45;9.40;;;2.90;;
24090;SDS011;12272;52.426;17.100;2023-06-05T22:24:53;7.93;;;3.28;;
24090;SDS011;12272;52.426;17.100;2023-06-05T22:29:59;3.95;;;2.47;;
24090;SDS011;12272;52.426;17.100;2023-06-05T22:35:01;4.68;;;2.95;;
24090;SDS011;12272;52.426;17.100;2023-06-05T22:40:05;5.68;;;2.28;;
24090;SDS011;12272;52.426;17.100;2023-06-05T22:45:08;9.98;;;2.72;;
24090;SDS011;12272;52.426;17.100;2023-06-05T22:50:11;2.97;;;1.98;;
24090;SDS011;12272;52.426;17.100;2023-06-05T22:55:13;5.55;;;2.65;;
24090;SDS011;12272;52.426;17.100;2023-06-05T23:00:16;7.30;;;2.97;;
24090;SDS011;12272;52.426;17.100;2023-06-05T23:05:19;9.63;;;3.05;;
24090;SDS011;12272;52.426;17.100;2023-06-05T23:10:22;3.50;;;2.70;;
24090;SDS011;12272;52.426;17.100;2023-06-05T23:15:24;7.43;;;2.80;;
24090;SDS011;12272;52.426;17.100;2023-06-05T23:20:29;3.67;;;2.28;;
24090;SDS011;12272;52.426;17.100;2023-06-05T23:25:32;5.45;;;2.85;;
24090;SDS011;12272;52.426;17.100;2023-06-05T23:30:41;6.88;;;2.75;;
24090;SDS011;12272;52.426;17.100;2023-06-05T23:35:44;4.28;;;2.30;;
24090;SDS011;12272;52.426;17.100;2023-06-05T23:40:46;5.93;;;2.45;;
24090;SDS011;12272;52.426;17.100;2023-06-05T23:45:49;5.32;;;2.75;;
24090;SDS011;12272;52.426;17.100;2023-06-05T23:50:52;7.18;;;2.50;;
24090;SDS011;12272;52.426;17.100;2023-06-05T23:55:54;3.67;;;2.72;;
